sensor_id;sensor_type;location;lat;lon;timestamp;P1;durP1;ratioP1;P2;durP2;ratioP2
67528;SDS011;54366;51.980;5.856;2022-07-09T00:02:15;4.40;;;4.00;;
67528;SDS011;54366;51.980;5.856;2022-07-09T00:04:41;4.82;;;4.30;;
67528;SDS011;54366;51.980;5.856;2022-07-09T00:07:07;5.63;;;4.20;;
67528;SDS011;54366;51.980;5.856;2022-07-09T00:09:33;4.97;;;4.57;;
67528;SDS011;54366;51.980;5.856;2022-07-09T00:11:59;4.03;;;3.50;;
67528;SDS011;54366;51.980;5.856;2022-07-09T00:14:26;5.97;;;4.90;;
67528;SDS011;54366;51.980;5.856;2022-07-09T00:16:52;4.07;;;3.75;;
67528;SDS011;54366;51.980;5.856;2022-07-09T00:19:18;6.07;;;5.18;;
67528;SDS011;54366;51.980;5.856;2022-07-09T00:21:44;4.63;;;4.28;;
67528;SDS011;54366;51.980;5.856;2022-07-09T00:24:11;4.93;;;4.43;;
67528;SDS011;54366;51.980;5.856;2022-07-09T00:26:37;4.93;;;4.43;;
67528;SDS011;54366;51.980;5.856;2022-07-09T00:29:03;5.30;;;4.80;;
67528;SDS011;54366;51.980;5.856;2022-07-09T00:31:30;4.50;;;4.10;;
67528;SDS011;54366;51.980;5.856;2022-07-09T00:33:56;4.95;;;4.45;;
67528;SDS011;54366;51.980;5.856;2022-07-09T00:36:22;4.45;;;4.05;;
67528;SDS011;54366;51.980;5.856;2022-07-09T00:38:48;4.82;;;4.43;;
67528;SDS011;54366;51.980;5.856;2022-07-09T00:41:14;5.95;;;5.35;;
67528;SDS011;54366;51.980;5.856;2022-07-09T00:43:47;5.53;;;5.00;;
67528;SDS011;54366;51.980;5.856;2022-07-09T00:46:15;4.75;;;4.28;;
67528;SDS011;54366;51.980;5.856;2022-07-09T00:48:42;6.03;;;5.53;;
67528;SDS011;54366;51.980;5.856;2022-07-09T00:51:09;6.30;;;5.70;;
67528;SDS011;54366;51.980;5.856;2022-07-09T00:53:38;5.80;;;5.25;;
67528;SDS011;54366;51.980;5.856;2022-07-09T00:56:04;5.38;;;4.88;;
67528;SDS011;54366;51.980;5.856;2022-07-09T00:58:31;4.90;;;4.50;;
67528;SDS011;54366;51.980;5.856;2022-07-09T01:00:58;5.47;;;4.90;;
67528;SDS011;54366;51.980;5.856;2022-07-09T01:03:26;5.25;;;4.75;;
67528;SDS011;54366;51.980;5.856;2022-07-09T01:05:52;5.75;;;5.25;;
67528;SDS011;54366;51.980;5.856;2022-07-09T01:08:19;5.50;;;5.00;;
67528;SDS011;54366;51.980;5.856;2022-07-09T01:10:45;5.18;;;4.78;;
67528;SDS011;54366;51.980;5.856;2022-07-09T01:13:12;5.88;;;5.35;;
67528;SDS011;54366;51.980;5.856;2022-07-09T01:15:38;4.90;;;4.30;;
67528;SDS011;54366;51.980;5.856;2022-07-09T01:18:04;5.07;;;4.50;;
67528;SDS011;54366;51.980;5.856;2022-07-09T01:20:34;3.97;;;3.67;;
67528;SDS011;54366;51.980;5.856;2022-07-09T01:23:01;6.47;;;5.70;;
67528;SDS011;54366;51.980;5.856;2022-07-09T01:25:36;5.32;;;4.82;;
67528;SDS011;54366;51.980;5.856;2022-07-09T01:28:07;5.45;;;4.10;;
67528;SDS011;54366;51.980;5.856;2022-07-09T01:30:36;4.93;;;4.53;;
67528;SDS011;54366;51.980;5.856;2022-07-09T01:33:03;6.50;;;5.25;;
67528;SDS011;54366;51.980;5.856;2022-07-09T01:35:30;5.00;;;4.65;;
67528;SDS011;54366;51.980;5.856;2022-07-09T01:37:56;5.88;;;5.28;;
67528;SDS011;54366;51.980;5.856;2022-07-09T01:40:23;5.47;;;5.07;;
67528;SDS011;54366;51.980;5.856;2022-07-09T01:42:49;5.15;;;4.75;;
67528;SDS011;54366;51.980;5.856;2022-07-09T01:45:16;6.03;;;5.10;;
67528;SDS011;54366;51.980;5.856;2022-07-09T01:47:42;4.75;;;4.35;;
67528;SDS011;54366;51.980;5.856;2022-07-09T01:50:09;5.90;;;5.40;;
67528;SDS011;54366;51.980;5.856;2022-07-09T01:52:36;6.65;;;5.80;;
67528;SDS011;54366;51.980;5.856;2022-07-09T01:55:02;6.55;;;5.95;;
67528;SDS011;54366;51.980;5.856;2022-07-09T01:57:29;6.35;;;5.75;;
67528;SDS011;54366;51.980;5.856;2022-07-09T01:59:55;6.28;;;5.65;;
67528;SDS011;54366;51.980;5.856;2022-07-09T02:02:22;6.68;;;5.70;;
67528;SDS011;54366;51.980;5.856;2022-07-09T02:04:48;4.22;;;3.85;;
67528;SDS011;54366;51.980;5.856;2022-07-09T02:07:14;3.45;;;3.15;;
67528;SDS011;54366;51.980;5.856;2022-07-09T02:09:41;3.47;;;3.17;;
67528;SDS011;54366;51.980;5.856;2022-07-09T02:12:07;3.33;;;3.03;;
67528;SDS011;54366;51.980;5.856;2022-07-09T02:14:34;5.55;;;5.05;;
67528;SDS011;54366;51.980;5.856;2022-07-09T02:17:00;5.88;;;5.32;;
67528;SDS011;54366;51.980;5.856;2022-07-09T02:19:26;5.78;;;5.28;;
67528;SDS011;54366;51.980;5.856;2022-07-09T02:21:53;6.18;;;5.20;;
67528;SDS011;54366;51.980;5.856;2022-07-09T02:24:19;5.28;;;4.57;;
67528;SDS011;54366;51.980;5.856;2022-07-09T02:26:46;4.90;;;4.45;;
67528;SDS011;54366;51.980;5.856;2022-07-09T02:29:12;5.80;;;5.20;;
67528;SDS011;54366;51.980;5.856;2022-07-09T02:31:38;6.03;;;5.40;;
67528;SDS011;54366;51.980;5.856;2022-07-09T02:34:04;5.28;;;4.78;;
67528;SDS011;54366;51.980;5.856;2022-07-09T02:36:30;6.00;;;5.40;;
67528;SDS011;54366;51.980;5.856;2022-07-09T02:38:57;4.95;;;4.50;;
67528;SDS011;54366;51.980;5.856;2022-07-09T02:41:23;6.00;;;5.35;;
67528;SDS011;54366;51.980;5.856;2022-07-09T02:43:49;6.72;;;5.30;;
67528;SDS011;54366;51.980;5.856;2022-07-09T02:46:15;5.78;;;5.28;;
67528;SDS011;54366;51.980;5.856;2022-07-09T02:48:41;6.72;;;5.70;;
67528;SDS011;54366;51.980;5.856;2022-07-09T02:51:08;5.30;;;4.80;;
67528;SDS011;54366;51.980;5.856;2022-07-09T02:53:34;6.20;;;5.18;;
67528;SDS011;54366;51.980;5.856;2022-07-09T02:56:00;7.30;;;6.50;;
67528;SDS011;54366;51.980;5.856;2022-07-09T02:58:26;7.18;;;6.47;;
67528;SDS011;54366;51.980;5.856;2022-07-09T03:00:53;8.48;;;7.47;;
67528;SDS011;54366;51.980;5.856;2022-07-09T03:03:19;8.95;;;7.55;;
67528;SDS011;54366;51.980;5.856;2022-07-09T03:05:45;8.52;;;7.72;;
67528;SDS011;54366;51.980;5.856;2022-07-09T03:08:11;8.75;;;7.85;;
67528;SDS011;54366;51.980;5.856;2022-07-09T03:10:38;7.93;;;7.22;;
67528;SDS011;54366;51.980;5.856;2022-07-09T03:13:04;8.80;;;7.90;;
67528;SDS011;54366;51.980;5.856;2022-07-09T03:15:30;9.02;;;8.20;;
67528;SDS011;54366;51.980;5.856;2022-07-09T03:17:56;10.20;;;9.20;;
67528;SDS011;54366;51.980;5.856;2022-07-09T03:20:23;9.88;;;8.98;;
67528;SDS011;54366;51.980;5.856;2022-07-09T03:22:49;11.13;;;10.02;;
67528;SDS011;54366;51.980;5.856;2022-07-09T03:25:15;11.70;;;9.75;;
67528;SDS011;54366;51.980;5.856;2022-07-09T03:27:41;11.35;;;10.15;;
67528;SDS011;54366;51.980;5.856;2022-07-09T03:30:07;11.85;;;10.63;;
67528;SDS011;54366;51.980;5.856;2022-07-09T03:32:34;10.90;;;9.68;;
67528;SDS011;54366;51.980;5.856;2022-07-09T03:35:00;11.52;;;10.27;;
67528;SDS011;54366;51.980;5.856;2022-07-09T03:37:27;14.15;;;11.85;;
67528;SDS011;54366;51.980;5.856;2022-07-09T03:39:53;9.43;;;7.75;;
67528;SDS011;54366;51.980;5.856;2022-07-09T03:42:19;8.68;;;7.75;;
67528;SDS011;54366;51.980;5.856;2022-07-09T03:44:45;6.50;;;5.90;;
67528;SDS011;54366;51.980;5.856;2022-07-09T03:47:11;5.97;;;5.40;;
67528;SDS011;54366;51.980;5.856;2022-07-09T03:49:37;9.00;;;8.10;;
67528;SDS011;54366;51.980;5.856;2022-07-09T03:52:04;8.15;;;7.35;;
67528;SDS011;54366;51.980;5.856;2022-07-09T03:54:30;10.80;;;9.70;;
67528;SDS011;54366;51.980;5.856;2022-07-09T03:56:57;12.48;;;11.02;;
67528;SDS011;54366;51.980;5.856;2022-07-09T03:59:23;15.88;;;14.27;;
67528;SDS011;54366;51.980;5.856;2022-07-09T04:01:49;18.30;;;14.63;;
67528;SDS011;54366;51.980;5.856;2022-07-09T04:04:15;15.48;;;13.38;;
67528;SDS011;54366;51.980;5.856;2022-07-09T04:06:41;16.52;;;13.30;;
67528;SDS011;54366;51.980;5.856;2022-07-09T04:09:07;16.13;;;14.40;;
67528;SDS011;54366;51.980;5.856;2022-07-09T04:11:34;16.52;;;13.95;;
67528;SDS011;54366;51.980;5.856;2022-07-09T04:14:01;15.93;;;14.23;;
67528;SDS011;54366;51.980;5.856;2022-07-09T04:16:28;12.85;;;11.55;;
67528;SDS011;54366;51.980;5.856;2022-07-09T04:18:55;16.65;;;14.90;;
67528;SDS011;54366;51.980;5.856;2022-07-09T04:21:21;19.42;;;16.25;;
67528;SDS011;54366;51.980;5.856;2022-07-09T04:23:48;17.92;;;15.68;;
67528;SDS011;54366;51.980;5.856;2022-07-09T04:26:15;19.25;;;14.02;;
67528;SDS011;54366;51.980;5.856;2022-07-09T04:28:41;17.77;;;15.45;;
67528;SDS011;54366;51.980;5.856;2022-07-09T04:31:08;17.58;;;14.18;;
67528;SDS011;54366;51.980;5.856;2022-07-09T04:33:34;13.90;;;12.25;;
67528;SDS011;54366;51.980;5.856;2022-07-09T04:36:00;9.50;;;8.68;;
67528;SDS011;54366;51.980;5.856;2022-07-09T04:38:27;9.98;;;8.95;;
67528;SDS011;54366;51.980;5.856;2022-07-09T04:40:53;9.27;;;8.07;;
67528;SDS011;54366;51.980;5.856;2022-07-09T04:43:20;11.43;;;10.23;;
67528;SDS011;54366;51.980;5.856;2022-07-09T04:45:46;12.63;;;11.32;;
67528;SDS011;54366;51.980;5.856;2022-07-09T04:48:13;13.65;;;12.25;;
67528;SDS011;54366;51.980;5.856;2022-07-09T04:50:39;12.02;;;10.82;;
67528;SDS011;54366;51.980;5.856;2022-07-09T04:53:05;11.55;;;10.45;;
67528;SDS011;54366;51.980;5.856;2022-07-09T04:55:31;11.77;;;10.57;;
67528;SDS011;54366;51.980;5.856;2022-07-09T04:57:57;11.25;;;10.10;;
67528;SDS011;54366;51.980;5.856;2022-07-09T05:00:24;12.52;;;11.23;;
67528;SDS011;54366;51.980;5.856;2022-07-09T05:02:50;13.40;;;12.10;;
67528;SDS011;54366;51.980;5.856;2022-07-09T05:05:16;11.00;;;9.90;;
67528;SDS011;54366;51.980;5.856;2022-07-09T05:07:47;11.77;;;10.57;;
67528;SDS011;54366;51.980;5.856;2022-07-09T05:10:13;11.63;;;10.52;;
67528;SDS011;54366;51.980;5.856;2022-07-09T05:12:40;10.80;;;9.73;;
67528;SDS011;54366;51.980;5.856;2022-07-09T05:15:06;10.88;;;9.77;;
67528;SDS011;54366;51.980;5.856;2022-07-09T05:17:34;9.27;;;8.13;;
67528;SDS011;54366;51.980;5.856;2022-07-09T05:20:04;11.38;;;10.18;;
67528;SDS011;54366;51.980;5.856;2022-07-09T05:22:32;13.57;;;12.23;;
67528;SDS011;54366;51.980;5.856;2022-07-09T05:25:00;12.07;;;10.88;;
67528;SDS011;54366;51.980;5.856;2022-07-09T05:27:26;10.02;;;9.10;;
67528;SDS011;54366;51.980;5.856;2022-07-09T05:29:53;10.73;;;9.63;;
67528;SDS011;54366;51.980;5.856;2022-07-09T05:32:20;11.65;;;10.45;;
67528;SDS011;54366;51.980;5.856;2022-07-09T05:34:46;11.82;;;10.50;;
67528;SDS011;54366;51.980;5.856;2022-07-09T05:37:12;10.30;;;8.73;;
67528;SDS011;54366;51.980;5.856;2022-07-09T05:39:39;8.38;;;7.57;;
67528;SDS011;54366;51.980;5.856;2022-07-09T05:42:05;13.63;;;10.88;;
67528;SDS011;54366;51.980;5.856;2022-07-09T05:44:31;11.48;;;10.38;;
67528;SDS011;54366;51.980;5.856;2022-07-09T05:46:58;11.40;;;10.32;;
67528;SDS011;54366;51.980;5.856;2022-07-09T05:49:24;10.65;;;9.65;;
67528;SDS011;54366;51.980;5.856;2022-07-09T05:51:51;13.07;;;11.75;;
67528;SDS011;54366;51.980;5.856;2022-07-09T05:54:17;10.93;;;9.85;;
67528;SDS011;54366;51.980;5.856;2022-07-09T05:56:43;9.70;;;8.80;;
67528;SDS011;54366;51.980;5.856;2022-07-09T05:59:10;9.95;;;8.77;;
67528;SDS011;54366;51.980;5.856;2022-07-09T06:01:36;9.10;;;7.97;;
67528;SDS011;54366;51.980;5.856;2022-07-09T06:04:05;11.15;;;9.80;;
67528;SDS011;54366;51.980;5.856;2022-07-09T06:06:33;10.75;;;9.63;;
67528;SDS011;54366;51.980;5.856;2022-07-09T06:08:59;8.15;;;7.35;;
67528;SDS011;54366;51.980;5.856;2022-07-09T06:11:25;7.50;;;6.80;;
67528;SDS011;54366;51.980;5.856;2022-07-09T06:13:52;9.38;;;8.10;;
67528;SDS011;54366;51.980;5.856;2022-07-09T06:16:18;10.45;;;8.80;;
67528;SDS011;54366;51.980;5.856;2022-07-09T06:18:45;11.55;;;10.43;;
67528;SDS011;54366;51.980;5.856;2022-07-09T06:21:11;11.32;;;10.18;;
67528;SDS011;54366;51.980;5.856;2022-07-09T06:23:37;9.30;;;8.40;;
67528;SDS011;54366;51.980;5.856;2022-07-09T06:26:04;9.68;;;8.40;;
67528;SDS011;54366;51.980;5.856;2022-07-09T06:28:30;9.27;;;8.45;;
67528;SDS011;54366;51.980;5.856;2022-07-09T06:30:56;11.63;;;10.43;;
67528;SDS011;54366;51.980;5.856;2022-07-09T06:33:22;10.13;;;9.23;;
67528;SDS011;54366;51.980;5.856;2022-07-09T06:35:49;10.75;;;9.65;;
67528;SDS011;54366;51.980;5.856;2022-07-09T06:38:15;8.27;;;7.47;;
67528;SDS011;54366;51.980;5.856;2022-07-09T06:40:41;9.95;;;8.93;;
67528;SDS011;54366;51.980;5.856;2022-07-09T06:43:07;10.43;;;9.32;;
67528;SDS011;54366;51.980;5.856;2022-07-09T06:45:44;9.75;;;8.77;;
67528;SDS011;54366;51.980;5.856;2022-07-09T06:48:10;12.35;;;9.93;;
67528;SDS011;54366;51.980;5.856;2022-07-09T06:50:36;7.78;;;7.07;;
67528;SDS011;54366;51.980;5.856;2022-07-09T06:53:02;8.00;;;7.03;;
67528;SDS011;54366;51.980;5.856;2022-07-09T06:55:29;8.27;;;7.47;;
67528;SDS011;54366;51.980;5.856;2022-07-09T06:57:56;8.65;;;7.65;;
67528;SDS011;54366;51.980;5.856;2022-07-09T07:00:23;7.20;;;6.50;;
67528;SDS011;54366;51.980;5.856;2022-07-09T07:02:49;6.75;;;6.00;;
67528;SDS011;54366;51.980;5.856;2022-07-09T07:05:16;6.07;;;5.40;;
67528;SDS011;54366;51.980;5.856;2022-07-09T07:07:42;6.60;;;6.00;;
67528;SDS011;54366;51.980;5.856;2022-07-09T07:10:08;5.18;;;4.68;;
67528;SDS011;54366;51.980;5.856;2022-07-09T07:12:35;5.43;;;4.93;;
67528;SDS011;54366;51.980;5.856;2022-07-09T07:15:01;4.30;;;3.70;;
67528;SDS011;54366;51.980;5.856;2022-07-09T07:17:28;4.22;;;3.83;;
67528;SDS011;54366;51.980;5.856;2022-07-09T07:19:54;6.88;;;6.22;;
67528;SDS011;54366;51.980;5.856;2022-07-09T07:22:20;7.88;;;6.60;;
67528;SDS011;54366;51.980;5.856;2022-07-09T07:24:46;7.35;;;6.65;;
67528;SDS011;54366;51.980;5.856;2022-07-09T07:27:12;8.43;;;7.60;;
67528;SDS011;54366;51.980;5.856;2022-07-09T07:29:39;8.07;;;7.13;;
67528;SDS011;54366;51.980;5.856;2022-07-09T07:32:05;7.07;;;5.88;;
67528;SDS011;54366;51.980;5.856;2022-07-09T07:34:31;6.10;;;5.60;;
67528;SDS011;54366;51.980;5.856;2022-07-09T07:36:58;8.40;;;7.60;;
67528;SDS011;54366;51.980;5.856;2022-07-09T07:39:24;7.60;;;6.80;;
67528;SDS011;54366;51.980;5.856;2022-07-09T07:41:52;5.97;;;5.38;;
67528;SDS011;54366;51.980;5.856;2022-07-09T07:44:18;6.95;;;6.28;;
67528;SDS011;54366;51.980;5.856;2022-07-09T07:46:45;5.85;;;5.30;;
67528;SDS011;54366;51.980;5.856;2022-07-09T07:49:11;5.38;;;4.88;;
67528;SDS011;54366;51.980;5.856;2022-07-09T07:51:37;5.07;;;4.63;;
67528;SDS011;54366;51.980;5.856;2022-07-09T07:54:03;3.60;;;3.22;;
67528;SDS011;54366;51.980;5.856;2022-07-09T07:56:29;5.93;;;3.70;;
67528;SDS011;54366;51.980;5.856;2022-07-09T07:58:58;3.80;;;2.63;;
67528;SDS011;54366;51.980;5.856;2022-07-09T08:01:24;2.80;;;2.22;;
67528;SDS011;54366;51.980;5.856;2022-07-09T08:03:50;4.95;;;3.67;;
67528;SDS011;54366;51.980;5.856;2022-07-09T08:06:16;2.67;;;2.40;;
67528;SDS011;54366;51.980;5.856;2022-07-09T08:08:42;2.97;;;2.67;;
67528;SDS011;54366;51.980;5.856;2022-07-09T08:11:08;2.78;;;2.15;;
67528;SDS011;54366;51.980;5.856;2022-07-09T08:13:35;2.78;;;2.50;;
67528;SDS011;54366;51.980;5.856;2022-07-09T08:16:01;3.63;;;2.60;;
67528;SDS011;54366;51.980;5.856;2022-07-09T08:18:28;3.10;;;2.40;;
67528;SDS011;54366;51.980;5.856;2022-07-09T08:20:54;3.00;;;2.38;;
67528;SDS011;54366;51.980;5.856;2022-07-09T08:23:20;2.50;;;2.30;;
67528;SDS011;54366;51.980;5.856;2022-07-09T08:25:46;3.53;;;2.50;;
67528;SDS011;54366;51.980;5.856;2022-07-09T08:28:13;2.85;;;2.47;;
67528;SDS011;54366;51.980;5.856;2022-07-09T08:30:39;2.65;;;2.20;;
67528;SDS011;54366;51.980;5.856;2022-07-09T08:33:05;2.95;;;2.20;;
67528;SDS011;54366;51.980;5.856;2022-07-09T08:35:32;2.55;;;2.35;;
67528;SDS011;54366;51.980;5.856;2022-07-09T08:37:58;3.90;;;3.25;;
67528;SDS011;54366;51.980;5.856;2022-07-09T08:40:25;3.53;;;3.10;;
67528;SDS011;54366;51.980;5.856;2022-07-09T08:42:52;4.13;;;3.70;;
67528;SDS011;54366;51.980;5.856;2022-07-09T08:45:20;4.30;;;3.90;;
67528;SDS011;54366;51.980;5.856;2022-07-09T08:47:46;3.95;;;3.40;;
67528;SDS011;54366;51.980;5.856;2022-07-09T08:50:13;4.95;;;2.70;;
67528;SDS011;54366;51.980;5.856;2022-07-09T08:52:40;2.70;;;2.50;;
67528;SDS011;54366;51.980;5.856;2022-07-09T08:55:09;3.80;;;3.50;;
67528;SDS011;54366;51.980;5.856;2022-07-09T08:57:36;4.85;;;3.85;;
67528;SDS011;54366;51.980;5.856;2022-07-09T09:00:03;5.18;;;4.50;;
67528;SDS011;54366;51.980;5.856;2022-07-09T09:02:39;3.88;;;3.30;;
67528;SDS011;54366;51.980;5.856;2022-07-09T09:05:07;5.53;;;4.10;;
67528;SDS011;54366;51.980;5.856;2022-07-09T09:10:07;4.35;;;3.88;;
67528;SDS011;54366;51.980;5.856;2022-07-09T09:12:33;4.63;;;4.15;;
67528;SDS011;54366;51.980;5.856;2022-07-09T09:15:03;4.20;;;3.80;;
67528;SDS011;54366;51.980;5.856;2022-07-09T09:17:30;7.25;;;5.95;;
67528;SDS011;54366;51.980;5.856;2022-07-09T09:19:57;8.80;;;7.85;;
67528;SDS011;54366;51.980;5.856;2022-07-09T09:22:23;5.93;;;5.43;;
67528;SDS011;54366;51.980;5.856;2022-07-09T09:24:49;8.15;;;6.10;;
67528;SDS011;54366;51.980;5.856;2022-07-09T09:27:16;5.63;;;5.05;;
67528;SDS011;54366;51.980;5.856;2022-07-09T09:29:49;5.78;;;5.25;;
67528;SDS011;54366;51.980;5.856;2022-07-09T09:32:18;4.65;;;4.25;;
67528;SDS011;54366;51.980;5.856;2022-07-09T09:34:50;6.28;;;4.75;;
67528;SDS011;54366;51.980;5.856;2022-07-09T09:37:26;5.80;;;5.30;;
67528;SDS011;54366;51.980;5.856;2022-07-09T09:39:54;8.20;;;7.47;;
67528;SDS011;54366;51.980;5.856;2022-07-09T09:42:21;5.63;;;5.13;;
67528;SDS011;54366;51.980;5.856;2022-07-09T09:44:49;6.32;;;5.70;;
67528;SDS011;54366;51.980;5.856;2022-07-09T09:47:17;4.47;;;4.07;;
67528;SDS011;54366;51.980;5.856;2022-07-09T09:49:48;4.63;;;4.22;;
67528;SDS011;54366;51.980;5.856;2022-07-09T09:52:15;4.30;;;3.90;;
67528;SDS011;54366;51.980;5.856;2022-07-09T09:54:43;3.90;;;3.60;;
67528;SDS011;54366;51.980;5.856;2022-07-09T09:57:13;5.70;;;5.05;;
67528;SDS011;54366;51.980;5.856;2022-07-09T09:59:40;7.15;;;6.10;;
67528;SDS011;54366;51.980;5.856;2022-07-09T10:02:08;6.47;;;5.45;;
67528;SDS011;54366;51.980;5.856;2022-07-09T10:04:37;4.20;;;3.80;;
67528;SDS011;54366;51.980;5.856;2022-07-09T10:07:09;7.72;;;6.40;;
67528;SDS011;54366;51.980;5.856;2022-07-09T10:09:37;8.23;;;6.60;;
67528;SDS011;54366;51.980;5.856;2022-07-09T10:12:03;5.85;;;5.25;;
67528;SDS011;54366;51.980;5.856;2022-07-09T10:14:31;4.65;;;4.10;;
67528;SDS011;54366;51.980;5.856;2022-07-09T10:17:13;3.58;;;3.20;;
67528;SDS011;54366;51.980;5.856;2022-07-09T10:22:37;2.50;;;1.80;;
67528;SDS011;54366;51.980;5.856;2022-07-09T10:25:06;3.58;;;2.00;;
67528;SDS011;54366;51.980;5.856;2022-07-09T10:27:47;4.18;;;1.88;;
67528;SDS011;54366;51.980;5.856;2022-07-09T10:30:23;3.63;;;2.40;;
67528;SDS011;54366;51.980;5.856;2022-07-09T10:33:01;3.13;;;1.60;;
67528;SDS011;54366;51.980;5.856;2022-07-09T10:35:38;2.05;;;1.67;;
67528;SDS011;54366;51.980;5.856;2022-07-09T10:38:15;1.58;;;1.48;;
67528;SDS011;54366;51.980;5.856;2022-07-09T10:46:29;1.75;;;1.10;;
67528;SDS011;54366;51.980;5.856;2022-07-09T10:48:55;2.47;;;1.00;;
67528;SDS011;54366;51.980;5.856;2022-07-09T10:51:24;0.80;;;0.63;;
67528;SDS011;54366;51.980;5.856;2022-07-09T10:53:52;1.23;;;0.68;;
67528;SDS011;54366;51.980;5.856;2022-07-09T10:56:19;1.52;;;0.50;;
67528;SDS011;54366;51.980;5.856;2022-07-09T10:58:48;2.33;;;1.10;;
67528;SDS011;54366;51.980;5.856;2022-07-09T11:01:19;1.67;;;1.23;;
67528;SDS011;54366;51.980;5.856;2022-07-09T11:03:48;2.30;;;1.20;;
67528;SDS011;54366;51.980;5.856;2022-07-09T11:06:16;2.53;;;1.00;;
67528;SDS011;54366;51.980;5.856;2022-07-09T11:08:42;2.15;;;1.25;;
67528;SDS011;54366;51.980;5.856;2022-07-09T11:11:09;1.35;;;0.90;;
67528;SDS011;54366;51.980;5.856;2022-07-09T11:13:35;1.63;;;1.05;;
67528;SDS011;54366;51.980;5.856;2022-07-09T11:16:01;0.93;;;0.77;;
67528;SDS011;54366;51.980;5.856;2022-07-09T11:18:28;2.88;;;1.05;;
67528;SDS011;54366;51.980;5.856;2022-07-09T11:20:54;2.10;;;1.25;;
67528;SDS011;54366;51.980;5.856;2022-07-09T11:23:21;1.25;;;1.00;;
67528;SDS011;54366;51.980;5.856;2022-07-09T11:25:47;2.40;;;0.80;;
67528;SDS011;54366;51.980;5.856;2022-07-09T11:28:20;2.53;;;0.90;;
67528;SDS011;54366;51.980;5.856;2022-07-09T11:30:57;4.00;;;1.10;;
67528;SDS011;54366;51.980;5.856;2022-07-09T11:33:28;1.75;;;0.70;;
67528;SDS011;54366;51.980;5.856;2022-07-09T11:36:15;0.47;;;0.40;;
67528;SDS011;54366;51.980;5.856;2022-07-09T11:38:46;2.67;;;0.70;;
67528;SDS011;54366;51.980;5.856;2022-07-09T11:41:23;2.63;;;0.60;;
67528;SDS011;54366;51.980;5.856;2022-07-09T11:43:49;1.60;;;0.60;;
67528;SDS011;54366;51.980;5.856;2022-07-09T11:46:19;1.45;;;0.60;;
67528;SDS011;54366;51.980;5.856;2022-07-09T11:48:53;1.65;;;0.60;;
67528;SDS011;54366;51.980;5.856;2022-07-09T11:51:53;1.58;;;0.50;;
67528;SDS011;54366;51.980;5.856;2022-07-09T11:54:12;1.95;;;0.50;;
67528;SDS011;54366;51.980;5.856;2022-07-09T11:56:42;2.00;;;0.77;;
67528;SDS011;54366;51.980;5.856;2022-07-09T11:59:13;0.95;;;0.40;;
67528;SDS011;54366;51.980;5.856;2022-07-09T12:01:50;0.70;;;0.35;;
67528;SDS011;54366;51.980;5.856;2022-07-09T12:04:19;0.98;;;0.40;;
67528;SDS011;54366;51.980;5.856;2022-07-09T12:06:52;1.15;;;0.50;;
67528;SDS011;54366;51.980;5.856;2022-07-09T12:09:28;3.15;;;0.50;;
67528;SDS011;54366;51.980;5.856;2022-07-09T12:11:55;1.73;;;0.43;;
67528;SDS011;54366;51.980;5.856;2022-07-09T12:14:21;2.78;;;0.55;;
67528;SDS011;54366;51.980;5.856;2022-07-09T12:16:48;2.15;;;0.73;;
67528;SDS011;54366;51.980;5.856;2022-07-09T12:19:14;1.70;;;0.52;;
67528;SDS011;54366;51.980;5.856;2022-07-09T12:21:40;1.35;;;0.60;;
67528;SDS011;54366;51.980;5.856;2022-07-09T12:24:07;1.90;;;0.40;;
67528;SDS011;54366;51.980;5.856;2022-07-09T12:26:33;0.73;;;0.60;;
67528;SDS011;54366;51.980;5.856;2022-07-09T12:28:59;3.72;;;0.70;;
67528;SDS011;54366;51.980;5.856;2022-07-09T12:31:25;1.50;;;0.70;;
67528;SDS011;54366;51.980;5.856;2022-07-09T12:33:51;1.60;;;0.60;;
67528;SDS011;54366;51.980;5.856;2022-07-09T12:36:17;2.28;;;0.40;;
67528;SDS011;54366;51.980;5.856;2022-07-09T12:38:44;2.53;;;0.70;;
67528;SDS011;54366;51.980;5.856;2022-07-09T12:41:10;1.98;;;0.55;;
67528;SDS011;54366;51.980;5.856;2022-07-09T12:43:36;1.55;;;0.60;;
67528;SDS011;54366;51.980;5.856;2022-07-09T12:46:03;1.88;;;0.60;;
67528;SDS011;54366;51.980;5.856;2022-07-09T12:48:29;1.75;;;0.60;;
67528;SDS011;54366;51.980;5.856;2022-07-09T12:50:55;1.33;;;0.50;;
67528;SDS011;54366;51.980;5.856;2022-07-09T12:53:21;1.17;;;0.50;;
67528;SDS011;54366;51.980;5.856;2022-07-09T12:55:47;2.05;;;0.40;;
67528;SDS011;54366;51.980;5.856;2022-07-09T12:58:14;1.25;;;0.50;;
67528;SDS011;54366;51.980;5.856;2022-07-09T13:00:40;2.22;;;0.60;;
67528;SDS011;54366;51.980;5.856;2022-07-09T13:03:06;2.38;;;0.40;;
67528;SDS011;54366;51.980;5.856;2022-07-09T13:05:32;0.45;;;0.30;;
67528;SDS011;54366;51.980;5.856;2022-07-09T13:07:58;1.55;;;0.47;;
67528;SDS011;54366;51.980;5.856;2022-07-09T13:10:25;2.42;;;0.63;;
67528;SDS011;54366;51.980;5.856;2022-07-09T13:12:51;2.85;;;0.70;;
67528;SDS011;54366;51.980;5.856;2022-07-09T13:15:18;1.15;;;0.50;;
67528;SDS011;54366;51.980;5.856;2022-07-09T13:17:47;0.70;;;0.68;;
67528;SDS011;54366;51.980;5.856;2022-07-09T13:20:14;3.53;;;0.70;;
67528;SDS011;54366;51.980;5.856;2022-07-09T13:22:40;3.53;;;0.75;;
67528;SDS011;54366;51.980;5.856;2022-07-09T13:25:06;2.50;;;0.63;;
67528;SDS011;54366;51.980;5.856;2022-07-09T13:27:32;2.33;;;0.50;;
67528;SDS011;54366;51.980;5.856;2022-07-09T13:29:59;2.28;;;0.55;;
67528;SDS011;54366;51.980;5.856;2022-07-09T13:32:25;2.50;;;0.68;;
67528;SDS011;54366;51.980;5.856;2022-07-09T13:34:52;2.60;;;0.50;;
67528;SDS011;54366;51.980;5.856;2022-07-09T13:37:19;2.42;;;0.85;;
67528;SDS011;54366;51.980;5.856;2022-07-09T13:39:45;2.50;;;0.50;;
67528;SDS011;54366;51.980;5.856;2022-07-09T13:42:12;1.52;;;0.60;;
67528;SDS011;54366;51.980;5.856;2022-07-09T13:44:38;1.15;;;0.47;;
67528;SDS011;54366;51.980;5.856;2022-07-09T13:47:05;2.05;;;0.40;;
67528;SDS011;54366;51.980;5.856;2022-07-09T13:49:31;1.80;;;0.40;;
67528;SDS011;54366;51.980;5.856;2022-07-09T13:51:57;1.80;;;0.55;;
67528;SDS011;54366;51.980;5.856;2022-07-09T13:54:23;1.40;;;0.47;;
67528;SDS011;54366;51.980;5.856;2022-07-09T13:56:50;1.25;;;0.43;;
67528;SDS011;54366;51.980;5.856;2022-07-09T13:59:16;1.70;;;0.40;;
67528;SDS011;54366;51.980;5.856;2022-07-09T14:01:42;2.88;;;0.80;;
67528;SDS011;54366;51.980;5.856;2022-07-09T14:04:08;1.15;;;0.35;;
67528;SDS011;54366;51.980;5.856;2022-07-09T14:06:36;0.77;;;0.38;;
67528;SDS011;54366;51.980;5.856;2022-07-09T14:09:02;1.10;;;0.40;;
67528;SDS011;54366;51.980;5.856;2022-07-09T14:11:28;2.63;;;0.45;;
67528;SDS011;54366;51.980;5.856;2022-07-09T14:13:54;1.95;;;0.50;;
67528;SDS011;54366;51.980;5.856;2022-07-09T14:16:22;1.55;;;0.50;;
67528;SDS011;54366;51.980;5.856;2022-07-09T14:18:48;1.92;;;0.57;;
67528;SDS011;54366;51.980;5.856;2022-07-09T14:21:14;1.85;;;0.43;;
67528;SDS011;54366;51.980;5.856;2022-07-09T14:23:41;2.15;;;0.35;;
67528;SDS011;54366;51.980;5.856;2022-07-09T14:26:07;1.50;;;0.50;;
67528;SDS011;54366;51.980;5.856;2022-07-09T14:28:33;1.38;;;0.50;;
67528;SDS011;54366;51.980;5.856;2022-07-09T14:30:59;3.28;;;0.60;;
67528;SDS011;54366;51.980;5.856;2022-07-09T14:33:25;2.90;;;0.60;;
67528;SDS011;54366;51.980;5.856;2022-07-09T14:35:52;2.80;;;0.47;;
67528;SDS011;54366;51.980;5.856;2022-07-09T14:38:18;1.48;;;0.65;;
67528;SDS011;54366;51.980;5.856;2022-07-09T14:40:44;2.08;;;0.60;;
67528;SDS011;54366;51.980;5.856;2022-07-09T14:43:10;2.55;;;0.50;;
67528;SDS011;54366;51.980;5.856;2022-07-09T14:45:37;1.38;;;0.50;;
67528;SDS011;54366;51.980;5.856;2022-07-09T14:48:03;2.72;;;0.40;;
67528;SDS011;54366;51.980;5.856;2022-07-09T14:50:34;2.05;;;0.70;;
67528;SDS011;54366;51.980;5.856;2022-07-09T14:53:00;2.60;;;0.80;;
67528;SDS011;54366;51.980;5.856;2022-07-09T14:55:27;3.28;;;1.05;;